createdAt,value
2022-12-31T00:01:33.079Z,79.11
2022-12-31T00:03:59.821Z,79.31
2022-12-31T00:06:32.394Z,79.11
2022-12-31T00:09:00.843Z,79.00
2022-12-31T00:11:29.599Z,78.27
2022-12-31T00:13:56.546Z,78.09
2022-12-31T00:16:27.259Z,78.19
2022-12-31T00:18:56.572Z,78.41
2022-12-31T00:21:23.012Z,78.46
2022-12-31T00:23:49.462Z,78.77
2022-12-31T00:26:20.285Z,78.93
2022-12-31T00:28:48.268Z,78.24
2022-12-31T00:31:21.434Z,77.90
2022-12-31T00:33:48.834Z,78.81
2022-12-31T00:36:18.686Z,78.17
2022-12-31T00:38:47.632Z,78.57
2022-12-31T00:41:15.802Z,78.59
2022-12-31T00:43:42.880Z,78.78
2022-12-31T00:46:11.014Z,79.20
2022-12-31T00:48:38.896Z,79.02
2022-12-31T00:51:08.213Z,79.10
2022-12-31T00:53:34.777Z,79.28
2022-12-31T00:56:07.856Z,79.01
2022-12-31T00:58:35.308Z,79.27
2022-12-31T01:01:17.931Z,79.41
2022-12-31T01:03:45.798Z,79.77
2022-12-31T01:06:12.299Z,80.23
2022-12-31T01:08:38.948Z,79.98
2022-12-31T01:11:06.518Z,79.82
2022-12-31T01:13:33.292Z,79.85
2022-12-31T01:16:07.010Z,79.11
2022-12-31T01:18:33.569Z,79.07
2022-12-31T01:21:02.774Z,79.83
2022-12-31T01:23:29.771Z,79.91
2022-12-31T01:25:56.520Z,79.09
2022-12-31T01:28:22.962Z,81.90
2022-12-31T01:30:49.443Z,81.44
2022-12-31T01:33:15.932Z,82.12
2022-12-31T01:35:42.383Z,82.42
2022-12-31T01:38:08.832Z,81.61
2022-12-31T01:40:40.717Z,81.16
2022-12-31T01:43:19.939Z,80.41
2022-12-31T01:45:50.769Z,81.54
2022-12-31T01:48:24.133Z,81.01
2022-12-31T01:50:53.543Z,80.75
2022-12-31T01:53:21.368Z,81.58
2022-12-31T01:55:50.394Z,81.73
2022-12-31T01:58:27.507Z,81.50
2022-12-31T02:00:55.221Z,81.08
2022-12-31T02:03:25.882Z,80.19
2022-12-31T02:06:16.784Z,80.02
2022-12-31T02:08:43.918Z,80.35
2022-12-31T02:11:26.774Z,81.21
2022-12-31T02:13:58.865Z,80.58
2022-12-31T02:16:40.486Z,80.13
2022-12-31T02:19:37.203Z,79.74
2022-12-31T02:22:10.251Z,79.28
2022-12-31T02:25:23.304Z,79.05
2022-12-31T02:28:17.231Z,77.98
2022-12-31T02:30:52.422Z,78.97
2022-12-31T02:33:50.293Z,77.80
2022-12-31T02:36:23.889Z,77.23
2022-12-31T02:38:51.723Z,77.11
2022-12-31T02:41:20.453Z,77.39
2022-12-31T02:43:46.955Z,76.79
2022-12-31T02:46:31.060Z,78.63
2022-12-31T02:49:30.712Z,78.79
2022-12-31T02:52:07.636Z,78.42
2022-12-31T02:55:02.613Z,79.05
2022-12-31T02:57:51.348Z,79.12
2022-12-31T03:00:18.252Z,78.84
2022-12-31T03:02:48.001Z,79.36
2022-12-31T03:05:19.357Z,79.13
2022-12-31T03:07:46.304Z,77.99
2022-12-31T03:10:13.318Z,77.89
2022-12-31T03:12:43.626Z,77.92
2022-12-31T03:15:11.760Z,77.26
2022-12-31T03:17:38.219Z,77.37
2022-12-31T03:20:05.099Z,76.71
2022-12-31T03:22:33.167Z,77.17
2022-12-31T03:25:03.802Z,77.31
2022-12-31T03:27:30.273Z,77.23
2022-12-31T03:29:56.712Z,76.90
2022-12-31T03:32:23.179Z,77.11
2022-12-31T03:34:49.646Z,76.44
2022-12-31T03:37:16.091Z,77.22
2022-12-31T03:39:42.535Z,78.03
2022-12-31T03:42:08.968Z,78.29
2022-12-31T03:44:35.563Z,78.30
2022-12-31T03:47:02.061Z,78.10
2022-12-31T03:49:28.520Z,77.70
2022-12-31T03:51:54.992Z,77.52
2022-12-31T03:54:21.498Z,77.44
2022-12-31T03:56:49.544Z,77.51
2022-12-31T03:59:16.134Z,76.58
2022-12-31T04:01:42.687Z,77.30
2022-12-31T04:04:09.177Z,76.97
2022-12-31T04:06:35.659Z,77.88
2022-12-31T04:09:02.124Z,76.74
2022-12-31T04:11:28.608Z,76.13
2022-12-31T04:13:55.074Z,76.35
2022-12-31T04:16:21.589Z,75.65
2022-12-31T04:18:48.060Z,76.18
2022-12-31T04:21:14.536Z,76.44
2022-12-31T04:23:40.992Z,78.59
2022-12-31T04:26:07.561Z,77.66
2022-12-31T04:28:34.098Z,77.44
2022-12-31T04:31:00.575Z,76.52
2022-12-31T04:33:27.016Z,76.79
2022-12-31T04:35:53.514Z,76.33
2022-12-31T04:38:19.971Z,76.28
2022-12-31T04:40:46.448Z,75.52
2022-12-31T04:43:12.898Z,75.86
2022-12-31T04:45:39.397Z,78.42
2022-12-31T04:48:06.120Z,77.29
2022-12-31T04:50:32.576Z,77.19
2022-12-31T04:52:59.052Z,76.43
2022-12-31T04:55:25.557Z,77.29
2022-12-31T04:57:52.039Z,77.51
2022-12-31T05:00:18.502Z,76.66
2022-12-31T05:02:46.030Z,76.58
2022-12-31T05:05:12.627Z,77.42
2022-12-31T05:07:39.101Z,77.11
2022-12-31T05:10:06.162Z,77.28
2022-12-31T05:12:32.659Z,78.55
2022-12-31T05:14:59.116Z,78.50
2022-12-31T05:17:25.558Z,76.75
2022-12-31T05:19:52.029Z,77.73
2022-12-31T05:22:18.493Z,76.98
2022-12-31T05:24:44.935Z,76.42
2022-12-31T05:27:11.383Z,76.52
2022-12-31T05:29:37.845Z,77.77
2022-12-31T05:32:04.376Z,76.99
2022-12-31T05:34:30.894Z,76.72
2022-12-31T05:36:57.420Z,76.29
2022-12-31T05:39:23.881Z,76.08
2022-12-31T05:41:50.351Z,76.20
2022-12-31T05:44:16.807Z,76.34
2022-12-31T05:46:43.283Z,76.77
2022-12-31T05:49:09.751Z,76.50
2022-12-31T05:51:36.221Z,76.15
2022-12-31T05:54:02.671Z,76.78
2022-12-31T05:56:29.155Z,75.56
2022-12-31T05:58:56.132Z,75.23
2022-12-31T06:01:22.606Z,75.49
2022-12-31T06:03:49.186Z,75.29
2022-12-31T06:06:15.751Z,75.37
2022-12-31T06:08:42.222Z,75.54
2022-12-31T06:11:08.714Z,74.87
2022-12-31T06:13:35.368Z,75.30
2022-12-31T06:16:07.191Z,75.19
2022-12-31T06:18:33.670Z,75.14
2022-12-31T06:21:00.154Z,75.35
2022-12-31T06:23:27.015Z,75.78
2022-12-31T06:25:53.524Z,76.05
2022-12-31T06:28:20.675Z,75.76
2022-12-31T06:30:48.340Z,75.79
2022-12-31T06:33:14.834Z,76.66
2022-12-31T06:35:41.286Z,75.89
2022-12-31T06:38:07.771Z,76.03
2022-12-31T06:40:37.393Z,76.50
2022-12-31T06:43:03.861Z,76.21
2022-12-31T06:45:30.319Z,77.18
2022-12-31T06:47:56.786Z,76.49
2022-12-31T06:50:23.238Z,76.01
2022-12-31T06:52:49.695Z,77.81
2022-12-31T06:55:16.488Z,81.22
2022-12-31T06:57:43.218Z,79.85
2022-12-31T07:00:10.962Z,78.71
2022-12-31T07:02:58.746Z,78.10
2022-12-31T07:05:54.343Z,77.93
2022-12-31T07:08:52.232Z,77.70
2022-12-31T07:11:23.435Z,76.77
2022-12-31T07:14:21.579Z,78.00
2022-12-31T07:17:00.886Z,76.93
2022-12-31T07:19:57.316Z,78.26
2022-12-31T07:22:24.587Z,77.33
2022-12-31T07:24:51.341Z,78.29
2022-12-31T07:27:43.654Z,77.99
2022-12-31T07:30:24.837Z,78.31
2022-12-31T07:33:25.123Z,78.20
2022-12-31T07:36:09.176Z,79.05
2022-12-31T07:38:35.611Z,78.64
2022-12-31T07:41:35.715Z,79.29
2022-12-31T07:44:42.445Z,79.01
2022-12-31T07:47:21.193Z,78.96
2022-12-31T07:49:48.221Z,79.85
2022-12-31T07:52:15.004Z,79.21
2022-12-31T07:54:41.456Z,78.19
2022-12-31T07:57:10.214Z,77.77
2022-12-31T07:59:56.177Z,77.46
2022-12-31T08:02:45.784Z,76.66
2022-12-31T08:05:22.499Z,76.93
2022-12-31T08:08:20.285Z,77.19
2022-12-31T08:11:16.081Z,76.54
2022-12-31T08:13:42.728Z,75.34
2022-12-31T08:16:14.160Z,75.95
2022-12-31T08:18:41.035Z,74.66
2022-12-31T08:21:19.220Z,74.19
2022-12-31T08:24:07.477Z,73.26
2022-12-31T08:27:04.924Z,72.93
2022-12-31T08:29:45.876Z,73.15
2022-12-31T08:32:36.301Z,71.92
2022-12-31T08:35:28.281Z,72.77
2022-12-31T08:38:12.086Z,72.38
2022-12-31T08:40:49.209Z,71.77
2022-12-31T08:43:43.182Z,71.76
2022-12-31T08:46:33.567Z,70.89
2022-12-31T08:49:00.282Z,71.38
2022-12-31T08:51:27.359Z,71.46
2022-12-31T08:53:54.259Z,70.95
2022-12-31T08:56:50.738Z,69.93
2022-12-31T08:59:43.388Z,69.83
2022-12-31T09:02:23.326Z,69.60
2022-12-31T09:05:27.243Z,69.41
2022-12-31T09:08:03.284Z,69.93
2022-12-31T09:10:32.327Z,69.44
2022-12-31T09:13:17.281Z,68.41
2022-12-31T09:16:22.831Z,68.91
2022-12-31T09:18:49.295Z,68.34
2022-12-31T09:21:16.253Z,68.48
2022-12-31T09:23:43.036Z,68.24
2022-12-31T09:26:34.983Z,68.56
2022-12-31T09:29:26.358Z,67.92
2022-12-31T09:32:20.945Z,68.05
2022-12-31T09:34:56.341Z,68.28
2022-12-31T09:37:44.441Z,68.10
2022-12-31T09:40:50.717Z,67.67
2022-12-31T09:43:35.239Z,67.85
2022-12-31T09:46:52.255Z,67.02
2022-12-31T09:49:33.943Z,67.64
2022-12-31T09:52:21.210Z,67.90
2022-12-31T09:55:00.201Z,67.08
2022-12-31T09:57:37.113Z,66.87
2022-12-31T10:00:05.891Z,67.33
2022-12-31T10:02:59.780Z,66.52
2022-12-31T10:05:32.688Z,66.11
2022-12-31T10:08:24.998Z,65.63
2022-12-31T10:11:14.494Z,65.96
2022-12-31T10:13:59.490Z,65.15
2022-12-31T10:16:57.541Z,63.93
2022-12-31T10:19:35.549Z,63.71
2022-12-31T10:22:44.773Z,63.93
2022-12-31T10:25:38.815Z,63.46
2022-12-31T10:28:14.838Z,62.97
2022-12-31T10:30:57.097Z,63.21
2022-12-31T10:33:43.223Z,63.41
2022-12-31T10:36:25.510Z,62.92
2022-12-31T10:39:24.030Z,63.19
2022-12-31T10:42:21.574Z,62.31
2022-12-31T10:45:19.604Z,62.91
2022-12-31T10:48:07.577Z,62.12
2022-12-31T10:51:02.602Z,61.76
2022-12-31T10:54:00.841Z,61.26
2022-12-31T10:56:33.129Z,61.74
2022-12-31T10:59:37.436Z,61.00
2022-12-31T11:02:35.136Z,62.09
2022-12-31T11:05:24.065Z,60.85
2022-12-31T11:07:59.595Z,61.68
2022-12-31T11:10:35.146Z,61.69
2022-12-31T11:13:35.985Z,61.07
2022-12-31T11:16:40.398Z,61.21
2022-12-31T11:19:21.387Z,62.03
2022-12-31T11:22:05.232Z,63.21
2022-12-31T11:24:55.256Z,62.79
2022-12-31T11:27:58.862Z,61.29
2022-12-31T11:30:37.209Z,60.82
2022-12-31T11:33:15.600Z,60.13
2022-12-31T11:36:10.854Z,59.03
2022-12-31T11:38:51.825Z,58.81
2022-12-31T11:41:35.033Z,58.44
2022-12-31T11:44:39.089Z,58.02
2022-12-31T11:47:28.081Z,57.64
2022-12-31T11:50:20.971Z,58.62
2022-12-31T11:53:12.208Z,58.53
2022-12-31T11:56:06.482Z,57.96
2022-12-31T11:58:33.193Z,58.73
2022-12-31T12:01:10.799Z,57.91
2022-12-31T12:03:38.981Z,58.53
2022-12-31T12:06:05.539Z,57.02
2022-12-31T12:08:33.044Z,57.29
2022-12-31T12:11:07.308Z,56.98
2022-12-31T12:13:34.481Z,56.42
2022-12-31T12:16:07.167Z,57.05
2022-12-31T12:18:39.396Z,56.61
2022-12-31T12:21:10.651Z,56.59
2022-12-31T12:23:37.760Z,56.41
2022-12-31T12:26:04.769Z,56.13
2022-12-31T12:28:44.640Z,56.51
2022-12-31T12:31:21.003Z,56.24
2022-12-31T12:33:50.058Z,56.17
2022-12-31T12:36:19.229Z,56.10
2022-12-31T12:38:45.846Z,56.71
2022-12-31T12:41:21.141Z,55.96
2022-12-31T12:43:47.696Z,55.62
2022-12-31T12:46:22.925Z,55.85
2022-12-31T12:48:56.162Z,54.61
2022-12-31T12:51:41.262Z,55.28
2022-12-31T12:54:31.329Z,55.61
2022-12-31T12:57:14.480Z,56.96
2022-12-31T13:00:02.914Z,57.55
2022-12-31T13:03:01.457Z,56.15
2022-12-31T13:05:38.341Z,55.90
2022-12-31T13:08:35.704Z,55.52
2022-12-31T13:11:20.138Z,55.59
2022-12-31T13:13:46.528Z,55.91
2022-12-31T13:16:20.584Z,56.24
2022-12-31T13:18:59.190Z,55.05
2022-12-31T13:21:50.109Z,55.18
2022-12-31T13:24:38.172Z,54.40
2022-12-31T13:27:18.928Z,54.65
2022-12-31T13:29:47.981Z,54.73
2022-12-31T13:32:24.380Z,53.55
2022-12-31T13:34:57.738Z,53.58
2022-12-31T13:37:40.403Z,54.13
2022-12-31T13:40:30.414Z,54.78
2022-12-31T13:43:16.555Z,54.45
2022-12-31T13:45:48.184Z,54.91
2022-12-31T13:48:32.626Z,54.20
2022-12-31T13:51:13.589Z,54.53
2022-12-31T13:53:54.336Z,54.28
2022-12-31T13:56:29.210Z,54.56
2022-12-31T13:59:25.750Z,54.19
2022-12-31T14:01:56.941Z,54.77
2022-12-31T14:04:32.410Z,54.88
2022-12-31T14:07:10.133Z,55.23
2022-12-31T14:09:36.961Z,56.05
2022-12-31T14:12:23.423Z,55.61
2022-12-31T14:15:05.017Z,54.92
2022-12-31T14:17:38.688Z,55.62
2022-12-31T14:20:37.180Z,54.98
2022-12-31T14:23:22.424Z,55.75
2022-12-31T14:26:00.958Z,55.76
2022-12-31T14:28:46.652Z,55.93
2022-12-31T14:31:39.021Z,55.90
2022-12-31T14:34:24.225Z,56.15
2022-12-31T14:37:10.223Z,56.09
2022-12-31T14:40:00.196Z,56.48
2022-12-31T14:42:45.710Z,56.39
2022-12-31T14:45:18.219Z,56.83
2022-12-31T14:47:58.038Z,56.83
2022-12-31T14:50:30.442Z,56.27
2022-12-31T14:52:59.638Z,56.08
2022-12-31T14:55:32.201Z,56.30
2022-12-31T14:58:28.083Z,55.69
2022-12-31T15:00:58.877Z,54.36
2022-12-31T15:03:31.343Z,53.23
2022-12-31T15:06:22.639Z,52.98
2022-12-31T15:09:37.380Z,51.70
2022-12-31T15:12:30.525Z,52.67
2022-12-31T15:14:59.747Z,52.92
2022-12-31T15:17:29.105Z,52.77
2022-12-31T15:20:01.547Z,52.68
2022-12-31T15:22:43.445Z,53.45
2022-12-31T15:25:40.053Z,51.87
2022-12-31T15:28:30.012Z,51.20
2022-12-31T15:31:04.501Z,50.84
2022-12-31T15:33:37.428Z,50.75
2022-12-31T15:36:34.269Z,50.22
2022-12-31T15:39:20.301Z,51.37
2022-12-31T15:42:36.683Z,51.21
2022-12-31T15:44:38.087Z,50.97
2022-12-31T15:47:14.936Z,51.81
2022-12-31T15:49:46.353Z,52.13
2022-12-31T15:52:41.881Z,53.32
2022-12-31T15:55:22.967Z,53.25
2022-12-31T15:57:50.504Z,53.42
2022-12-31T16:00:23.184Z,53.62
2022-12-31T16:02:54.535Z,54.52
2022-12-31T16:05:27.078Z,55.00
2022-12-31T16:07:59.352Z,56.10
2022-12-31T16:10:31.922Z,55.92
2022-12-31T16:13:00.279Z,56.83
2022-12-31T16:15:31.239Z,57.14
2022-12-31T16:18:10.233Z,57.82
2022-12-31T16:20:43.368Z,57.84
2022-12-31T16:23:21.195Z,59.19
2022-12-31T16:25:50.853Z,59.90
2022-12-31T16:28:24.884Z,60.47
2022-12-31T16:31:07.250Z,59.38
2022-12-31T16:33:34.143Z,59.98
2022-12-31T16:36:02.057Z,60.88
2022-12-31T16:38:34.674Z,60.48
2022-12-31T16:41:01.091Z,61.47
2022-12-31T16:43:36.826Z,61.09
2022-12-31T16:46:21.486Z,61.28
2022-12-31T16:49:01.849Z,62.12
2022-12-31T16:51:35.785Z,62.54
2022-12-31T16:54:03.235Z,61.95
2022-12-31T16:56:38.114Z,63.62
2022-12-31T16:59:16.695Z,63.54
2022-12-31T17:01:44.312Z,63.55
2022-12-31T17:04:18.419Z,63.23
2022-12-31T17:06:45.207Z,62.73
2022-12-31T17:09:18.368Z,63.13
2022-12-31T17:11:58.653Z,64.24
2022-12-31T17:14:27.646Z,63.19
2022-12-31T17:17:02.780Z,65.02
2022-12-31T17:19:42.336Z,64.91
2022-12-31T17:22:31.636Z,64.70
2022-12-31T17:25:07.391Z,64.84
2022-12-31T17:27:35.713Z,64.58
2022-12-31T17:30:21.813Z,65.18
2022-12-31T17:32:48.648Z,64.87
2022-12-31T17:35:27.451Z,64.92
2022-12-31T17:37:54.059Z,65.02
2022-12-31T17:40:50.843Z,65.57
2022-12-31T17:43:22.047Z,66.42
2022-12-31T17:45:51.932Z,66.72
2022-12-31T17:48:22.704Z,66.40
2022-12-31T17:50:51.872Z,66.61
2022-12-31T17:53:18.870Z,66.39
2022-12-31T17:55:50.725Z,66.70
2022-12-31T17:58:29.791Z,67.23
2022-12-31T18:00:57.728Z,67.28
2022-12-31T18:03:24.584Z,66.93
2022-12-31T18:05:51.601Z,67.39
2022-12-31T18:08:18.103Z,66.53
2022-12-31T18:10:45.079Z,67.45
2022-12-31T18:13:23.086Z,67.46
2022-12-31T18:15:49.908Z,67.75
2022-12-31T18:18:25.320Z,68.22
2022-12-31T18:21:01.979Z,68.01
2022-12-31T18:23:35.548Z,68.54
2022-12-31T18:26:02.005Z,68.78
2022-12-31T18:28:29.604Z,68.90
2022-12-31T18:30:56.234Z,69.34
2022-12-31T18:33:22.874Z,69.17
2022-12-31T18:36:08.374Z,68.81
2022-12-31T18:38:35.574Z,69.16
2022-12-31T18:41:02.038Z,70.04
2022-12-31T18:43:28.473Z,69.56
2022-12-31T18:45:55.062Z,69.45
2022-12-31T18:48:21.588Z,69.32
2022-12-31T18:50:49.345Z,69.78
2022-12-31T18:53:22.174Z,69.85
2022-12-31T18:55:57.263Z,69.39
2022-12-31T18:58:24.258Z,70.07
2022-12-31T19:00:51.908Z,70.38
2022-12-31T19:03:24.630Z,69.82
2022-12-31T19:05:51.536Z,70.23
2022-12-31T19:08:19.303Z,70.16
2022-12-31T19:10:47.612Z,70.26
2022-12-31T19:13:16.891Z,69.49
2022-12-31T19:15:51.644Z,70.17
2022-12-31T19:18:18.664Z,72.08
2022-12-31T19:20:46.152Z,70.50
2022-12-31T19:23:18.684Z,72.49
2022-12-31T19:25:46.882Z,71.43
2022-12-31T19:28:25.258Z,71.56
2022-12-31T19:30:52.403Z,71.44
2022-12-31T19:33:19.673Z,71.73
2022-12-31T19:35:46.360Z,71.66
2022-12-31T19:38:22.283Z,71.29
2022-12-31T19:40:50.407Z,70.71
2022-12-31T19:43:19.557Z,70.09
2022-12-31T19:45:46.612Z,70.34
2022-12-31T19:48:18.699Z,70.81
2022-12-31T19:50:47.940Z,71.28
2022-12-31T19:53:19.195Z,71.41
2022-12-31T19:55:46.185Z,71.03
2022-12-31T19:58:21.843Z,70.84
2022-12-31T20:00:55.585Z,70.76
2022-12-31T20:03:25.992Z,69.67
2022-12-31T20:06:01.635Z,71.40
2022-12-31T20:08:28.111Z,69.85
2022-12-31T20:10:54.592Z,70.85
2022-12-31T20:13:21.065Z,69.44
2022-12-31T20:15:47.518Z,68.31
2022-12-31T20:18:14.103Z,68.81
2022-12-31T20:20:49.207Z,69.01
2022-12-31T20:23:18.518Z,68.63
2022-12-31T20:25:44.971Z,69.89
2022-12-31T20:28:11.435Z,69.53
2022-12-31T20:30:38.939Z,70.03
2022-12-31T20:33:05.424Z,69.60
2022-12-31T20:35:31.899Z,70.48
2022-12-31T20:37:58.411Z,69.05
2022-12-31T20:40:24.854Z,69.61
2022-12-31T20:42:51.315Z,69.22
2022-12-31T20:45:17.865Z,69.14
2022-12-31T20:47:44.403Z,69.32
2022-12-31T20:50:12.255Z,69.19
2022-12-31T20:52:39.226Z,68.90
2022-12-31T20:55:06.262Z,68.80
2022-12-31T20:57:33.890Z,68.89
2022-12-31T21:00:01.002Z,69.05
2022-12-31T21:02:40.873Z,69.69
2022-12-31T21:05:09.315Z,69.36
2022-12-31T21:07:35.925Z,70.61
2022-12-31T21:10:02.419Z,72.41
2022-12-31T21:12:28.940Z,71.14
2022-12-31T21:14:55.483Z,70.49
2022-12-31T21:17:21.947Z,70.41
2022-12-31T21:19:48.408Z,70.22
2022-12-31T21:22:14.917Z,69.71
2022-12-31T21:24:41.373Z,68.79
2022-12-31T21:27:07.923Z,70.03
2022-12-31T21:29:35.573Z,71.00
2022-12-31T21:32:03.597Z,69.38
2022-12-31T21:34:30.040Z,69.27
2022-12-31T21:36:56.531Z,69.29
2022-12-31T21:39:23.035Z,70.01
2022-12-31T21:41:49.520Z,70.02
2022-12-31T21:44:16.031Z,69.28
2022-12-31T21:47:00.916Z,71.12
2022-12-31T21:49:28.939Z,71.89
2022-12-31T21:51:55.485Z,70.68
2022-12-31T21:54:21.978Z,72.85
2022-12-31T21:56:48.457Z,72.78
2022-12-31T21:59:14.931Z,72.57
2022-12-31T22:01:42.230Z,72.70
2022-12-31T22:04:28.202Z,74.54
2022-12-31T22:06:55.177Z,74.35
2022-12-31T22:09:21.651Z,76.25
2022-12-31T22:11:48.153Z,75.91
2022-12-31T22:14:14.650Z,76.51
2022-12-31T22:16:41.125Z,78.40
2022-12-31T22:19:07.631Z,77.95
2022-12-31T22:21:34.085Z,77.28
2022-12-31T22:24:00.528Z,78.60
2022-12-31T22:26:28.877Z,79.00
2022-12-31T22:28:55.428Z,81.07
2022-12-31T22:31:23.362Z,81.03
2022-12-31T22:33:50.260Z,79.43
2022-12-31T22:36:22.324Z,79.30
2022-12-31T22:38:50.886Z,78.54
2022-12-31T22:41:21.845Z,79.59
2022-12-31T22:43:50.994Z,79.92
2022-12-31T22:46:23.615Z,79.65
2022-12-31T22:48:51.502Z,78.40
2022-12-31T22:51:19.877Z,78.27
2022-12-31T22:53:46.375Z,77.05
2022-12-31T22:56:15.786Z,78.21
2022-12-31T22:58:42.899Z,77.27
2022-12-31T23:01:23.041Z,77.08
2022-12-31T23:03:52.343Z,76.00
2022-12-31T23:06:21.031Z,75.47
2022-12-31T23:08:47.782Z,74.68
2022-12-31T23:11:14.280Z,74.70
2022-12-31T23:13:49.508Z,76.71
2022-12-31T23:16:16.915Z,75.35
2022-12-31T23:18:43.439Z,76.00
2022-12-31T23:21:10.114Z,74.84
2022-12-31T23:23:36.568Z,74.62
2022-12-31T23:26:03.120Z,74.42
2022-12-31T23:28:29.615Z,74.83
2022-12-31T23:30:56.144Z,74.85
2022-12-31T23:33:25.634Z,76.25
2022-12-31T23:36:03.094Z,75.32
2022-12-31T23:38:29.574Z,74.46
2022-12-31T23:40:56.087Z,74.29
2022-12-31T23:43:22.831Z,73.05
2022-12-31T23:45:50.837Z,72.80
2022-12-31T23:48:17.301Z,73.61
2022-12-31T23:50:49.165Z,74.54
2022-12-31T23:53:19.035Z,75.42
2022-12-31T23:55:45.498Z,75.12
2022-12-31T23:58:11.957Z,75.36
